createdAt,value
2023-06-20T00:00:25.223Z,17.08
2023-06-20T00:01:25.197Z,17.05
2023-06-20T00:02:25.222Z,17.01
2023-06-20T00:03:25.176Z,16.95
2023-06-20T00:04:25.179Z,16.90
2023-06-20T00:05:25.388Z,16.86
2023-06-20T00:06:25.132Z,16.82
2023-06-20T00:07:25.123Z,16.78
2023-06-20T00:08:25.151Z,16.75
2023-06-20T00:09:25.103Z,16.74
2023-06-20T00:10:25.082Z,16.73
2023-06-20T00:11:25.079Z,16.73
2023-06-20T00:12:25.067Z,16.74
2023-06-20T00:13:25.062Z,16.74
2023-06-20T00:14:25.082Z,16.74
2023-06-20T00:15:25.266Z,16.73
2023-06-20T00:16:25.002Z,16.72
2023-06-20T00:17:25.020Z,16.72
2023-06-20T00:18:24.996Z,16.71
2023-06-20T00:19:24.969Z,16.70
2023-06-20T00:20:24.982Z,16.68
2023-06-20T00:21:24.938Z,16.65
2023-06-20T00:22:24.932Z,16.62
2023-06-20T00:23:24.924Z,16.59
2023-06-20T00:24:24.994Z,16.56
2023-06-20T00:25:25.098Z,16.53
2023-06-20T00:26:24.914Z,16.51
2023-06-20T00:27:24.867Z,16.50
2023-06-20T00:28:24.864Z,16.49
2023-06-20T00:29:24.845Z,16.48
2023-06-20T00:30:24.836Z,16.47
2023-06-20T00:31:24.810Z,16.45
2023-06-20T00:32:24.831Z,16.45
2023-06-20T00:33:24.772Z,16.44
2023-06-20T00:34:24.825Z,16.44
2023-06-20T00:35:25.003Z,16.43
2023-06-20T00:36:24.749Z,16.43
2023-06-20T00:37:24.731Z,16.44
2023-06-20T00:38:24.753Z,16.46
2023-06-20T00:39:24.709Z,16.48
2023-06-20T00:40:24.699Z,16.49
2023-06-20T00:41:24.701Z,16.50
2023-06-20T00:42:24.702Z,16.51
2023-06-20T00:43:24.659Z,16.52
2023-06-20T00:44:24.665Z,16.55
2023-06-20T00:45:24.915Z,16.59
2023-06-20T00:46:24.738Z,16.62
2023-06-20T00:47:24.648Z,16.67
2023-06-20T00:48:24.599Z,16.73
2023-06-20T00:49:24.589Z,16.78
2023-06-20T00:50:24.612Z,16.82
2023-06-20T00:51:24.571Z,16.85
2023-06-20T00:52:24.550Z,16.89
2023-06-20T00:53:24.532Z,16.94
2023-06-20T00:54:24.520Z,16.99
2023-06-20T00:55:24.766Z,17.03
2023-06-20T00:56:24.522Z,17.07
2023-06-20T00:57:24.474Z,17.11
2023-06-20T00:58:24.456Z,17.13
2023-06-20T00:59:24.452Z,17.14
2023-06-20T01:00:30.890Z,17.15
2023-06-20T01:01:24.450Z,17.15
2023-06-20T01:02:24.560Z,17.14
2023-06-20T01:03:24.545Z,17.14
2023-06-20T01:04:24.371Z,17.13
2023-06-20T01:05:24.527Z,17.11
2023-06-20T01:06:24.345Z,17.07
2023-06-20T01:07:24.334Z,17.04
2023-06-20T01:08:24.358Z,17.00
2023-06-20T01:09:24.318Z,16.97
2023-06-20T01:10:24.304Z,16.93
2023-06-20T01:11:24.289Z,16.90
2023-06-20T01:12:24.271Z,16.88
2023-06-20T01:13:24.268Z,16.87
2023-06-20T01:14:24.290Z,16.85
2023-06-20T01:15:24.526Z,16.83
2023-06-20T01:16:24.242Z,16.82
2023-06-20T01:17:24.257Z,16.81
2023-06-20T01:18:24.199Z,16.81
2023-06-20T01:19:24.221Z,16.80
2023-06-20T01:20:24.199Z,16.80
2023-06-20T01:21:24.160Z,16.80
2023-06-20T01:22:24.154Z,16.79
2023-06-20T01:23:24.135Z,16.79
2023-06-20T01:24:24.161Z,16.79
2023-06-20T01:25:24.284Z,16.78
2023-06-20T01:26:24.125Z,16.78
2023-06-20T01:27:24.094Z,16.78
2023-06-20T01:28:24.086Z,16.77
2023-06-20T01:29:24.052Z,16.77
2023-06-20T01:30:24.036Z,16.76
2023-06-20T01:31:24.036Z,16.75
2023-06-20T01:32:24.079Z,16.73
2023-06-20T01:33:24.014Z,16.72
2023-06-20T01:34:24.039Z,16.71
2023-06-20T01:35:24.404Z,16.70
2023-06-20T01:36:23.991Z,16.70
2023-06-20T01:37:23.957Z,16.69
2023-06-20T01:38:23.974Z,16.68
2023-06-20T01:39:23.929Z,16.68
2023-06-20T01:40:23.911Z,16.67
2023-06-20T01:41:23.895Z,16.67
2023-06-20T01:42:23.896Z,16.68
2023-06-20T01:43:23.874Z,16.69
2023-06-20T01:44:23.889Z,16.69
2023-06-20T01:45:24.079Z,16.71
2023-06-20T01:46:23.870Z,16.74
2023-06-20T01:47:23.921Z,16.76
2023-06-20T01:48:23.802Z,16.77
2023-06-20T01:49:23.787Z,16.77
2023-06-20T01:50:23.811Z,16.77
2023-06-20T01:51:23.773Z,16.77
2023-06-20T01:52:23.772Z,16.78
2023-06-20T01:53:23.741Z,16.79
2023-06-20T01:54:23.732Z,16.79
2023-06-20T01:55:23.947Z,16.79
2023-06-20T01:56:23.731Z,16.78
2023-06-20T01:57:23.687Z,16.77
2023-06-20T01:58:23.736Z,16.76
2023-06-20T01:59:23.732Z,16.76
2023-06-20T02:00:23.651Z,16.76
2023-06-20T02:01:23.641Z,16.75
2023-06-20T02:02:23.710Z,16.71
2023-06-20T02:03:23.662Z,16.66
2023-06-20T02:04:23.598Z,16.59
2023-06-20T02:05:23.865Z,16.51
2023-06-20T02:06:23.620Z,16.43
2023-06-20T02:07:23.621Z,16.36
2023-06-20T02:08:23.624Z,16.30
2023-06-20T02:09:23.540Z,16.25
2023-06-20T02:10:23.568Z,16.20
2023-06-20T02:11:23.506Z,16.17
2023-06-20T02:12:23.538Z,16.13
2023-06-20T02:13:23.501Z,16.11
2023-06-20T02:14:23.596Z,16.09
2023-06-20T02:15:23.948Z,16.07
2023-06-20T02:16:23.458Z,16.06
2023-06-20T02:17:23.521Z,16.05
2023-06-20T02:18:23.414Z,16.04
2023-06-20T02:19:23.406Z,16.03
2023-06-20T02:20:23.430Z,16.03
2023-06-20T02:21:23.375Z,16.02
2023-06-20T02:22:23.359Z,16.02
2023-06-20T02:23:23.345Z,16.01
2023-06-20T02:24:23.365Z,16.00
2023-06-20T02:25:23.444Z,15.99
2023-06-20T02:26:23.351Z,15.98
2023-06-20T02:27:23.291Z,15.97
2023-06-20T02:28:23.304Z,15.96
2023-06-20T02:29:23.272Z,15.96
2023-06-20T02:30:23.254Z,15.97
2023-06-20T02:31:23.260Z,15.97
2023-06-20T02:32:23.295Z,15.97
2023-06-20T02:33:23.217Z,15.97
2023-06-20T02:34:23.271Z,15.97
2023-06-20T02:35:23.304Z,15.97
2023-06-20T02:36:23.175Z,15.96
2023-06-20T02:37:23.159Z,15.96
2023-06-20T02:38:23.198Z,15.95
2023-06-20T02:39:23.154Z,15.95
2023-06-20T02:40:23.119Z,15.94
2023-06-20T02:41:23.115Z,15.94
2023-06-20T02:42:23.091Z,15.93
2023-06-20T02:43:23.081Z,15.92
2023-06-20T02:44:23.113Z,15.91
2023-06-20T02:45:23.409Z,15.90
2023-06-20T02:46:23.107Z,15.89
2023-06-20T02:47:23.060Z,15.89
2023-06-20T02:48:23.042Z,15.88
2023-06-20T02:49:23.000Z,15.88
2023-06-20T02:50:23.019Z,15.88
2023-06-20T02:51:22.989Z,15.88
2023-06-20T02:52:22.962Z,15.88
2023-06-20T02:53:22.984Z,15.88
2023-06-20T02:54:22.961Z,15.88
2023-06-20T02:55:23.068Z,15.89
2023-06-20T02:56:22.966Z,15.89
2023-06-20T02:57:22.936Z,15.90
2023-06-20T02:58:22.967Z,15.91
2023-06-20T02:59:22.874Z,15.92
2023-06-20T03:00:22.877Z,15.92
2023-06-20T03:01:22.901Z,15.92
2023-06-20T03:02:22.960Z,15.93
2023-06-20T03:03:22.897Z,15.93
2023-06-20T03:04:22.805Z,15.93
2023-06-20T03:05:22.936Z,15.93
2023-06-20T03:06:22.785Z,15.93
2023-06-20T03:07:22.772Z,15.94
2023-06-20T03:08:22.789Z,15.94
2023-06-20T03:09:22.743Z,15.94
2023-06-20T03:10:22.743Z,15.94
2023-06-20T03:11:22.713Z,15.94
2023-06-20T03:12:22.723Z,15.94
2023-06-20T03:13:22.697Z,15.94
2023-06-20T03:14:22.746Z,15.95
2023-06-20T03:15:22.754Z,15.95
2023-06-20T03:16:22.722Z,15.96
2023-06-20T03:17:22.667Z,15.96
2023-06-20T03:18:22.631Z,15.96
2023-06-20T03:19:22.685Z,15.95
2023-06-20T03:20:22.673Z,15.94
2023-06-20T03:21:29.429Z,15.94
2023-06-20T03:22:22.593Z,15.94
2023-06-20T03:23:22.574Z,15.94
2023-06-20T03:24:22.563Z,15.95
2023-06-20T03:25:22.557Z,15.95
2023-06-20T03:26:22.556Z,15.96
2023-06-20T03:27:22.511Z,15.97
2023-06-20T03:28:22.522Z,15.98
2023-06-20T03:29:22.515Z,15.98
2023-06-20T03:30:22.500Z,15.99
2023-06-20T03:31:22.503Z,15.98
2023-06-20T03:32:22.487Z,15.98
2023-06-20T03:33:22.434Z,15.98
2023-06-20T03:34:22.423Z,15.98
2023-06-20T03:35:22.425Z,15.98
2023-06-20T03:36:22.413Z,15.98
2023-06-20T03:37:22.388Z,15.99
2023-06-20T03:38:22.405Z,16.00
2023-06-20T03:39:22.380Z,16.00
2023-06-20T03:40:22.352Z,16.00
2023-06-20T03:41:22.335Z,16.00
2023-06-20T03:42:22.318Z,16.00
2023-06-20T03:43:22.328Z,16.00
2023-06-20T03:44:22.320Z,16.00
2023-06-20T03:45:22.315Z,15.99
2023-06-20T03:46:22.325Z,15.99
2023-06-20T03:47:22.326Z,15.98
2023-06-20T03:48:22.239Z,15.97
2023-06-20T03:49:22.232Z,15.96
2023-06-20T03:50:22.250Z,15.96
2023-06-20T03:51:22.207Z,15.96
2023-06-20T03:52:22.200Z,15.96
2023-06-20T03:53:22.193Z,15.96
2023-06-20T03:54:22.175Z,15.98
2023-06-20T03:55:22.183Z,15.99
2023-06-20T03:56:22.182Z,15.99
2023-06-20T03:57:22.130Z,15.99
2023-06-20T03:58:22.219Z,16.00
2023-06-20T03:59:22.096Z,16.01
2023-06-20T04:00:22.113Z,16.01
2023-06-20T04:01:22.112Z,16.01
2023-06-20T04:02:22.103Z,16.02
2023-06-20T04:03:22.144Z,16.03
2023-06-20T04:04:22.030Z,16.03
2023-06-20T04:05:22.030Z,16.05
2023-06-20T04:06:22.004Z,16.06
2023-06-20T04:07:22.004Z,16.08
2023-06-20T04:08:22.014Z,16.10
2023-06-20T04:09:22.010Z,16.11
2023-06-20T04:10:21.965Z,16.12
2023-06-20T04:11:21.942Z,16.13
2023-06-20T04:12:21.929Z,16.14
2023-06-20T04:13:21.910Z,16.14
2023-06-20T04:14:21.953Z,16.14
2023-06-20T04:15:21.893Z,16.13
2023-06-20T04:16:21.893Z,16.13
2023-06-20T04:17:21.895Z,16.14
2023-06-20T04:18:21.855Z,16.15
2023-06-20T04:19:21.847Z,16.15
2023-06-20T04:20:21.867Z,16.13
2023-06-20T04:21:21.853Z,16.12
2023-06-20T04:22:21.807Z,16.09
2023-06-20T04:23:21.792Z,16.07
2023-06-20T04:24:21.859Z,16.06
2023-06-20T04:25:21.766Z,16.05
2023-06-20T04:26:21.790Z,16.05
2023-06-20T04:27:21.738Z,16.05
2023-06-20T04:28:21.758Z,16.05
2023-06-20T04:29:21.727Z,16.05
2023-06-20T04:30:21.704Z,16.05
2023-06-20T04:31:21.674Z,16.05
2023-06-20T04:32:21.736Z,16.05
2023-06-20T04:33:21.673Z,16.05
2023-06-20T04:34:21.641Z,16.05
2023-06-20T04:35:21.622Z,16.05
2023-06-20T04:36:21.630Z,16.05
2023-06-20T04:37:21.607Z,16.06
2023-06-20T04:38:21.695Z,16.05
2023-06-20T04:39:21.626Z,16.05
2023-06-20T04:40:21.576Z,16.05
2023-06-20T04:41:21.564Z,16.05
2023-06-20T04:42:21.527Z,16.05
2023-06-20T04:43:21.531Z,16.05
2023-06-20T04:44:21.541Z,16.06
2023-06-20T04:45:21.523Z,16.06
2023-06-20T04:46:21.484Z,16.07
2023-06-20T04:47:21.512Z,16.08
2023-06-20T04:48:21.556Z,16.09
2023-06-20T04:49:21.459Z,16.11
2023-06-20T04:50:21.457Z,16.13
2023-06-20T04:51:21.430Z,16.15
2023-06-20T04:52:21.415Z,16.16
2023-06-20T04:53:21.393Z,16.17
2023-06-20T04:54:21.392Z,16.17
2023-06-20T04:55:21.378Z,16.18
2023-06-20T04:56:21.395Z,16.20
2023-06-20T04:57:21.346Z,16.24
2023-06-20T04:58:21.337Z,16.28
2023-06-20T04:59:21.316Z,16.33
2023-06-20T05:00:21.333Z,16.38
2023-06-20T05:01:21.319Z,16.43
2023-06-20T05:02:21.324Z,16.48
2023-06-20T05:03:21.380Z,16.51
2023-06-20T05:04:21.288Z,16.55
2023-06-20T05:05:21.266Z,16.59
2023-06-20T05:06:21.262Z,16.63
2023-06-20T05:07:21.213Z,16.68
2023-06-20T05:08:21.249Z,16.73
2023-06-20T05:09:21.194Z,16.79
2023-06-20T05:10:21.176Z,16.84
2023-06-20T05:11:21.154Z,16.90
2023-06-20T05:12:21.163Z,16.96
2023-06-20T05:13:21.144Z,17.02
2023-06-20T05:14:21.156Z,17.07
2023-06-20T05:15:21.120Z,17.10
2023-06-20T05:16:21.185Z,17.12
2023-06-20T05:17:21.155Z,17.15
2023-06-20T05:18:21.076Z,17.18
2023-06-20T05:19:21.059Z,17.23
2023-06-20T05:20:21.083Z,17.27
2023-06-20T05:21:21.031Z,17.33
2023-06-20T05:22:21.018Z,17.41
2023-06-20T05:23:21.113Z,17.50
2023-06-20T05:24:21.053Z,17.62
2023-06-20T05:25:21.016Z,17.77
2023-06-20T05:26:21.012Z,17.90
2023-06-20T05:27:20.962Z,18.01
2023-06-20T05:28:20.937Z,18.09
2023-06-20T05:29:20.960Z,18.20
2023-06-20T05:30:20.926Z,18.33
2023-06-20T05:31:20.971Z,18.43
2023-06-20T05:32:21.110Z,18.49
2023-06-20T05:33:20.950Z,18.55
2023-06-20T05:34:20.893Z,18.61
2023-06-20T05:35:20.849Z,18.65
2023-06-20T05:36:20.873Z,18.70
2023-06-20T05:37:20.843Z,18.73
2023-06-20T05:38:20.859Z,18.77
2023-06-20T05:39:20.808Z,18.78
2023-06-20T05:40:20.838Z,18.76
2023-06-20T05:41:20.782Z,18.79
2023-06-20T05:42:20.770Z,18.86
2023-06-20T05:43:20.754Z,18.91
2023-06-20T05:44:20.814Z,18.92
2023-06-20T05:45:20.743Z,18.93
2023-06-20T05:46:20.802Z,18.90
2023-06-20T05:47:20.735Z,18.86
2023-06-20T05:48:20.697Z,18.82
2023-06-20T05:49:20.683Z,18.80
2023-06-20T05:50:20.697Z,18.79
2023-06-20T05:51:20.792Z,18.81
2023-06-20T05:52:20.641Z,18.88
2023-06-20T05:53:20.624Z,19.00
2023-06-20T05:54:20.620Z,19.11
2023-06-20T05:55:20.605Z,19.19
2023-06-20T05:56:20.630Z,19.23
2023-06-20T05:57:20.581Z,19.20
2023-06-20T05:58:20.558Z,19.15
2023-06-20T05:59:20.563Z,19.08
2023-06-20T06:00:20.587Z,19.01
2023-06-20T06:01:20.560Z,18.95
2023-06-20T06:02:20.572Z,18.90
2023-06-20T06:03:20.704Z,18.87
2023-06-20T06:04:20.582Z,18.90
2023-06-20T06:05:20.496Z,19.01
2023-06-20T06:06:20.478Z,19.15
2023-06-20T06:07:20.464Z,19.30
2023-06-20T06:08:20.488Z,19.43
2023-06-20T06:09:20.442Z,19.57
2023-06-20T06:10:20.443Z,19.74
2023-06-20T06:11:20.404Z,19.93
2023-06-20T06:12:20.415Z,20.12
2023-06-20T06:13:20.384Z,20.29
2023-06-20T06:14:20.404Z,20.45
2023-06-20T06:15:20.373Z,20.60
2023-06-20T06:16:20.379Z,20.72
2023-06-20T06:17:20.359Z,20.79
2023-06-20T06:18:20.327Z,20.83
2023-06-20T06:19:20.309Z,20.89
2023-06-20T06:20:20.355Z,20.96
2023-06-20T06:21:20.292Z,21.01
2023-06-20T06:22:20.267Z,21.03
2023-06-20T06:23:20.262Z,21.01
2023-06-20T06:24:20.273Z,20.98
2023-06-20T06:25:20.223Z,21.00
2023-06-20T06:26:20.252Z,21.05
2023-06-20T06:27:20.205Z,21.10
2023-06-20T06:28:20.198Z,21.13
2023-06-20T06:29:20.180Z,21.12
2023-06-20T06:30:20.182Z,21.13
2023-06-20T06:31:20.195Z,21.18
2023-06-20T06:32:20.236Z,21.23
2023-06-20T06:33:20.132Z,21.28
2023-06-20T06:34:20.135Z,21.31
2023-06-20T06:35:20.133Z,21.36
2023-06-20T06:36:20.108Z,21.42
2023-06-20T06:37:20.071Z,21.46
2023-06-20T06:38:20.112Z,21.50
2023-06-20T06:39:20.063Z,21.49
2023-06-20T06:40:20.076Z,21.49
2023-06-20T06:41:20.045Z,21.52
2023-06-20T06:42:20.031Z,21.52
2023-06-20T06:43:20.010Z,21.54
2023-06-20T06:44:20.033Z,21.65
2023-06-20T06:45:19.981Z,21.77
2023-06-20T06:46:19.996Z,21.88
2023-06-20T06:47:20.015Z,22.04
2023-06-20T06:48:19.944Z,22.23
2023-06-20T06:49:19.968Z,22.45
2023-06-20T06:50:19.959Z,22.71
2023-06-20T06:51:19.903Z,22.96
2023-06-20T06:52:19.907Z,23.19
2023-06-20T06:53:19.883Z,23.39
2023-06-20T06:54:19.866Z,23.45
2023-06-20T06:55:19.866Z,23.42
2023-06-20T06:56:19.881Z,23.42
2023-06-20T06:57:19.835Z,23.44
2023-06-20T06:58:19.813Z,23.51
2023-06-20T06:59:19.812Z,23.61
2023-06-20T07:00:19.801Z,23.76
2023-06-20T07:01:19.803Z,23.97
2023-06-20T07:02:19.848Z,24.25
2023-06-20T07:03:19.877Z,24.62
2023-06-20T07:04:19.760Z,24.94
2023-06-20T07:05:19.745Z,25.15
2023-06-20T07:06:19.717Z,25.30
2023-06-20T07:07:19.706Z,25.39
2023-06-20T07:08:19.730Z,25.47
2023-06-20T07:09:19.690Z,25.54
2023-06-20T07:10:19.676Z,25.65
2023-06-20T07:11:19.678Z,25.85
2023-06-20T07:12:19.656Z,25.95
2023-06-20T07:13:19.659Z,25.93
2023-06-20T07:14:19.672Z,25.91
2023-06-20T07:15:19.640Z,25.90
2023-06-20T07:16:19.630Z,25.90
2023-06-20T07:17:19.663Z,26.01
2023-06-20T07:18:19.599Z,26.27
2023-06-20T07:19:19.596Z,26.42
2023-06-20T07:20:19.630Z,26.38
2023-06-20T07:21:19.566Z,26.32
2023-06-20T07:22:19.564Z,26.18
2023-06-20T07:23:19.542Z,26.06
2023-06-20T07:24:19.583Z,26.07
2023-06-20T07:25:19.534Z,26.13
2023-06-20T07:26:19.542Z,26.17
2023-06-20T07:27:19.512Z,26.29
2023-06-20T07:28:19.487Z,26.36
2023-06-20T07:29:19.488Z,26.35
2023-06-20T07:30:19.481Z,26.30
2023-06-20T07:31:19.516Z,26.21
2023-06-20T07:32:19.521Z,26.14
2023-06-20T07:33:19.439Z,26.02
2023-06-20T07:34:19.444Z,25.87
2023-06-20T07:35:19.452Z,25.81
2023-06-20T07:36:19.410Z,25.82
2023-06-20T07:37:19.407Z,25.86
2023-06-20T07:38:20.118Z,25.98
2023-06-20T07:39:19.378Z,26.17
2023-06-20T07:40:19.360Z,26.28
2023-06-20T07:41:19.360Z,26.32
2023-06-20T07:42:19.356Z,26.38
2023-06-20T07:43:19.332Z,26.53
2023-06-20T07:44:19.371Z,26.84
2023-06-20T07:45:19.324Z,27.19
2023-06-20T07:46:19.378Z,27.39
2023-06-20T07:47:19.360Z,27.56
2023-06-20T07:48:19.293Z,27.58
2023-06-20T07:49:19.325Z,27.38
2023-06-20T07:50:19.319Z,27.18
2023-06-20T07:51:19.275Z,27.14
2023-06-20T07:52:19.255Z,27.26
2023-06-20T07:53:19.256Z,27.45
2023-06-20T07:54:19.239Z,27.56
2023-06-20T07:55:28.844Z,27.63
2023-06-20T07:56:19.240Z,27.87
2023-06-20T07:57:19.261Z,28.28
2023-06-20T07:58:19.204Z,28.57
2023-06-20T07:59:19.225Z,28.60
2023-06-20T08:00:19.223Z,28.54
2023-06-20T08:01:19.302Z,28.53
2023-06-20T08:02:19.209Z,28.68
2023-06-20T08:03:19.230Z,28.96
2023-06-20T08:04:19.160Z,29.22
2023-06-20T08:05:19.130Z,29.44
2023-06-20T08:06:19.121Z,29.65
2023-06-20T08:07:19.115Z,29.74
2023-06-20T08:08:19.161Z,29.75
2023-06-20T08:09:19.098Z,29.80
2023-06-20T08:10:19.384Z,29.91
2023-06-20T08:11:19.085Z,30.22
2023-06-20T08:12:19.106Z,30.58
2023-06-20T08:13:19.140Z,30.59
2023-06-20T08:14:19.070Z,30.42
2023-06-20T08:15:19.041Z,30.53
2023-06-20T08:16:19.119Z,30.76
2023-06-20T08:17:19.086Z,30.93
2023-06-20T08:18:19.017Z,30.99
2023-06-20T08:19:19.053Z,30.99
2023-06-20T08:20:19.047Z,31.03
2023-06-20T08:21:19.021Z,31.04
2023-06-20T08:22:19.016Z,31.05
2023-06-20T08:23:18.968Z,31.13
2023-06-20T08:24:18.987Z,31.24
2023-06-20T08:25:18.969Z,31.26
2023-06-20T08:26:18.989Z,31.24
2023-06-20T08:27:18.936Z,31.36
2023-06-20T08:28:18.992Z,31.45
2023-06-20T08:29:18.924Z,31.44
2023-06-20T08:30:18.941Z,31.49
2023-06-20T08:31:19.007Z,31.59
2023-06-20T08:32:18.951Z,31.75
2023-06-20T08:33:18.939Z,31.82
2023-06-20T08:34:18.955Z,31.68
2023-06-20T08:35:18.916Z,31.61
2023-06-20T08:36:18.907Z,31.66
2023-06-20T08:37:18.975Z,31.66
2023-06-20T08:38:18.894Z,31.50
2023-06-20T08:39:18.847Z,31.40
2023-06-20T08:40:18.889Z,31.37
2023-06-20T08:41:21.490Z,31.29
2023-06-20T08:42:18.830Z,31.19
2023-06-20T08:43:18.872Z,31.26
2023-06-20T08:44:18.859Z,31.59
2023-06-20T08:45:18.821Z,31.98
2023-06-20T08:46:19.602Z,32.07
2023-06-20T08:47:18.850Z,31.98
2023-06-20T08:48:18.797Z,31.99
2023-06-20T08:49:18.872Z,32.01
2023-06-20T08:50:18.844Z,31.99
2023-06-20T08:51:18.786Z,32.04
2023-06-20T08:52:18.817Z,32.06
2023-06-20T08:53:20.571Z,31.97
2023-06-20T08:54:18.758Z,31.80
2023-06-20T08:55:18.791Z,31.68
2023-06-20T08:56:18.798Z,31.66
2023-06-20T08:57:18.758Z,31.58
2023-06-20T08:58:18.793Z,31.37
2023-06-20T08:59:18.718Z,31.35
2023-06-20T09:00:18.735Z,31.51
2023-06-20T09:01:18.821Z,31.67
2023-06-20T09:02:18.776Z,31.68
2023-06-20T09:03:18.935Z,31.58
2023-06-20T09:04:18.733Z,31.58
2023-06-20T09:05:18.692Z,31.79
2023-06-20T09:06:18.672Z,32.04
2023-06-20T09:07:18.737Z,32.15
2023-06-20T09:08:18.742Z,31.95
2023-06-20T09:09:18.655Z,31.47
2023-06-20T09:10:18.736Z,31.14
2023-06-20T09:11:18.639Z,31.11
2023-06-20T09:12:18.630Z,31.21
2023-06-20T09:13:18.773Z,31.42
2023-06-20T09:14:18.665Z,31.75
2023-06-20T09:15:18.655Z,31.94
2023-06-20T09:16:18.676Z,32.16
2023-06-20T09:17:18.698Z,32.40
2023-06-20T09:18:18.601Z,32.59
2023-06-20T09:19:18.672Z,32.68
2023-06-20T09:20:18.618Z,32.56
2023-06-20T09:21:18.585Z,32.44
2023-06-20T09:22:18.640Z,32.47
2023-06-20T09:23:18.564Z,32.57
2023-06-20T09:24:18.559Z,32.78
2023-06-20T09:25:18.643Z,33.08
2023-06-20T09:26:18.584Z,33.33
2023-06-20T09:27:18.556Z,33.51
2023-06-20T09:28:18.951Z,33.53
2023-06-20T09:29:18.524Z,33.45
2023-06-20T09:30:18.541Z,33.31
2023-06-20T09:31:18.925Z,32.91
2023-06-20T09:32:18.676Z,32.54
2023-06-20T09:33:18.494Z,32.27
2023-06-20T09:34:18.908Z,32.08
2023-06-20T09:35:18.486Z,31.97
2023-06-20T09:36:18.507Z,32.06
2023-06-20T09:37:18.477Z,32.32
2023-06-20T09:38:18.600Z,32.61
2023-06-20T09:39:18.458Z,32.84
2023-06-20T09:40:18.461Z,33.19
2023-06-20T09:41:18.642Z,33.60
2023-06-20T09:42:18.518Z,33.86
2023-06-20T09:43:18.520Z,33.93
2023-06-20T09:44:18.460Z,33.80
2023-06-20T09:45:18.483Z,33.76
2023-06-20T09:46:18.527Z,33.93
2023-06-20T09:47:18.442Z,33.96
2023-06-20T09:48:18.466Z,33.94
2023-06-20T09:49:18.439Z,33.95
2023-06-20T09:50:18.556Z,33.88
2023-06-20T09:51:18.396Z,33.82
2023-06-20T09:52:18.379Z,33.81
2023-06-20T09:53:18.398Z,33.63
2023-06-20T09:54:18.370Z,33.54
2023-06-20T09:55:18.358Z,33.46
2023-06-20T09:56:18.436Z,33.30
2023-06-20T09:57:18.351Z,33.27
2023-06-20T09:58:18.344Z,33.46
2023-06-20T09:59:18.360Z,33.87
2023-06-20T10:00:18.360Z,34.23
2023-06-20T10:01:18.326Z,34.53
2023-06-20T10:02:18.407Z,34.92
2023-06-20T10:03:18.391Z,35.37
2023-06-20T10:04:18.315Z,35.69
2023-06-20T10:05:18.348Z,35.60
2023-06-20T10:06:18.293Z,35.22
2023-06-20T10:07:18.308Z,34.93
2023-06-20T10:08:18.353Z,34.72
2023-06-20T10:09:18.280Z,34.58
2023-06-20T10:10:18.284Z,34.66
2023-06-20T10:11:18.294Z,34.99
2023-06-20T10:12:18.277Z,35.33
2023-06-20T10:13:19.452Z,35.43
2023-06-20T10:14:18.330Z,35.17
2023-06-20T10:15:18.252Z,34.84
2023-06-20T10:16:18.258Z,34.62
2023-06-20T10:17:18.454Z,34.46
2023-06-20T10:18:18.357Z,34.41
2023-06-20T10:19:20.070Z,34.48
2023-06-20T10:20:18.285Z,34.54
2023-06-20T10:21:18.208Z,34.64
2023-06-20T10:22:18.293Z,34.83
2023-06-20T10:23:18.196Z,35.06
2023-06-20T10:24:18.340Z,35.29
2023-06-20T10:25:18.266Z,35.28
2023-06-20T10:26:18.331Z,35.20
2023-06-20T10:27:18.326Z,35.27
2023-06-20T10:28:18.175Z,35.46
2023-06-20T10:29:18.194Z,35.67
2023-06-20T10:30:19.194Z,35.80
2023-06-20T10:31:18.188Z,35.94
2023-06-20T10:32:18.214Z,36.12
2023-06-20T10:33:18.926Z,36.06
2023-06-20T10:34:18.146Z,35.86
2023-06-20T10:35:18.200Z,35.59
2023-06-20T10:36:18.188Z,35.00
2023-06-20T10:37:18.257Z,34.31
2023-06-20T10:38:18.156Z,33.93
2023-06-20T10:39:18.109Z,33.81
2023-06-20T10:40:18.124Z,33.82
2023-06-20T10:41:18.333Z,33.79
2023-06-20T10:42:18.104Z,33.84
2023-06-20T10:43:18.199Z,34.16
2023-06-20T10:44:18.162Z,34.51
2023-06-20T10:45:18.262Z,34.83
2023-06-20T10:46:18.291Z,35.05
2023-06-20T10:47:18.056Z,35.07
2023-06-20T10:48:18.068Z,35.12
2023-06-20T10:49:18.118Z,35.20
2023-06-20T10:50:18.080Z,35.14
2023-06-20T10:51:18.073Z,35.12
2023-06-20T10:52:18.071Z,35.22
2023-06-20T10:53:18.031Z,35.23
2023-06-20T10:54:18.019Z,35.15
2023-06-20T10:55:18.034Z,35.23
2023-06-20T10:56:18.029Z,35.55
2023-06-20T10:57:17.991Z,35.92
2023-06-20T10:58:31.820Z,35.89
2023-06-20T10:59:18.091Z,35.68
2023-06-20T11:00:17.982Z,35.56
2023-06-20T11:01:18.005Z,35.44
2023-06-20T11:02:18.033Z,35.32
2023-06-20T11:03:18.115Z,35.14
2023-06-20T11:04:18.035Z,35.15
2023-06-20T11:05:17.943Z,35.28
2023-06-20T11:06:18.032Z,35.43
2023-06-20T11:07:18.721Z,35.67
2023-06-20T11:08:17.962Z,35.86
2023-06-20T11:09:17.986Z,35.83
2023-06-20T11:10:17.969Z,35.46
2023-06-20T11:11:17.911Z,35.09
2023-06-20T11:12:17.986Z,34.90
2023-06-20T11:13:17.887Z,34.70
2023-06-20T11:14:17.924Z,34.32
2023-06-20T11:15:18.032Z,33.80
2023-06-20T11:16:17.878Z,33.41
2023-06-20T11:17:17.863Z,33.16
2023-06-20T11:18:18.020Z,33.06
2023-06-20T11:19:30.839Z,33.01
2023-06-20T11:20:17.895Z,32.81
2023-06-20T11:21:17.856Z,32.71
2023-06-20T11:22:17.829Z,32.82
2023-06-20T11:23:17.821Z,33.01
2023-06-20T11:24:17.845Z,33.19
2023-06-20T11:25:17.905Z,33.29
2023-06-20T11:26:17.831Z,33.49
2023-06-20T11:27:17.848Z,33.72
2023-06-20T11:28:17.815Z,33.88
2023-06-20T11:29:18.008Z,33.94
2023-06-20T11:30:17.764Z,34.02
2023-06-20T11:31:17.793Z,34.13
2023-06-20T11:32:17.903Z,34.20
2023-06-20T11:33:17.756Z,34.36
2023-06-20T11:34:17.772Z,34.64
2023-06-20T11:35:17.929Z,34.90
2023-06-20T11:36:17.713Z,34.93
2023-06-20T11:37:17.723Z,34.78
2023-06-20T11:38:17.821Z,34.61
2023-06-20T11:39:17.689Z,34.40
2023-06-20T11:40:17.697Z,34.17
2023-06-20T11:41:17.774Z,33.88
2023-06-20T11:42:17.682Z,33.68
2023-06-20T11:43:17.665Z,33.56
2023-06-20T11:44:17.734Z,33.47
2023-06-20T11:45:20.353Z,33.37
2023-06-20T11:46:17.737Z,33.28
2023-06-20T11:47:17.732Z,33.15
2023-06-20T11:48:17.632Z,32.97
2023-06-20T11:49:17.616Z,32.78
2023-06-20T11:50:17.712Z,32.61
2023-06-20T11:51:17.613Z,32.52
2023-06-20T11:52:17.582Z,32.57
2023-06-20T11:53:17.608Z,32.65
2023-06-20T11:54:17.582Z,32.77
2023-06-20T11:55:17.572Z,33.07
2023-06-20T11:56:17.591Z,33.52
2023-06-20T11:57:17.545Z,33.97
2023-06-20T11:58:17.559Z,34.40
2023-06-20T11:59:17.524Z,34.76
2023-06-20T12:00:17.529Z,34.89
2023-06-20T12:01:17.529Z,34.97
2023-06-20T12:02:17.591Z,35.14
2023-06-20T12:03:17.502Z,35.19
2023-06-20T12:04:17.561Z,35.08
2023-06-20T12:05:17.478Z,35.02
2023-06-20T12:06:17.477Z,34.99
2023-06-20T12:07:17.483Z,34.90
2023-06-20T12:08:17.477Z,34.76
2023-06-20T12:09:17.498Z,34.54
2023-06-20T12:10:17.487Z,34.34
2023-06-20T12:11:17.441Z,34.15
2023-06-20T12:12:17.421Z,33.99
2023-06-20T12:13:17.482Z,34.00
2023-06-20T12:14:17.456Z,34.12
2023-06-20T12:15:17.409Z,34.26
2023-06-20T12:16:17.579Z,34.38
2023-06-20T12:17:17.388Z,34.47
2023-06-20T12:18:17.390Z,34.69
2023-06-20T12:19:17.373Z,34.96
2023-06-20T12:20:32.793Z,35.21
2023-06-20T12:21:17.369Z,35.50
2023-06-20T12:22:17.392Z,35.53
2023-06-20T12:23:17.378Z,35.17
2023-06-20T12:24:17.545Z,34.66
2023-06-20T12:25:17.364Z,34.23
2023-06-20T12:26:17.351Z,34.00
2023-06-20T12:27:17.332Z,33.90
2023-06-20T12:28:17.300Z,33.88
2023-06-20T12:29:17.298Z,33.90
2023-06-20T12:30:17.314Z,33.95
2023-06-20T12:31:17.320Z,34.02
2023-06-20T12:32:17.357Z,34.11
2023-06-20T12:33:17.293Z,34.10
2023-06-20T12:34:19.308Z,33.98
2023-06-20T12:35:17.250Z,33.71
2023-06-20T12:36:17.289Z,33.38
2023-06-20T12:37:17.240Z,33.07
2023-06-20T12:38:17.289Z,32.82
2023-06-20T12:39:17.229Z,32.69
2023-06-20T12:40:17.222Z,32.62
2023-06-20T12:41:17.220Z,32.53
2023-06-20T12:42:17.227Z,32.39
2023-06-20T12:43:17.205Z,32.28
2023-06-20T12:44:17.237Z,32.20
2023-06-20T12:45:17.170Z,32.12
2023-06-20T12:46:17.189Z,32.12
2023-06-20T12:47:17.153Z,32.12
2023-06-20T12:48:17.168Z,32.12
2023-06-20T12:49:17.156Z,32.16
2023-06-20T12:50:17.156Z,32.21
2023-06-20T12:51:17.106Z,32.20
2023-06-20T12:52:17.115Z,32.06